HVN131 VVTS-EDDF
Flight info
| Callsign | HVN131 |
|---|---|
| Flight time | N/A |
| Altitude | 32000 |
| Route | SAPEN2B SAPEN R468 ELMOP P629 BKK P646 JJS B209 KKJ L333 MEMID/N0499F340 L333 MERUN L750 RANAH B449 MARAD/N0481F360 B449 MAMED P130 REBLO UM11 EKTES/N0481F380 UM11 CRM UM688 EKSUK UL852 NEGEM DCT NEKUL DCT MIVSA DCT MOPUG DCT STEIN DCT LNZ DCT SUBEN DCT AKINI T161 DEBHI DEBHI1A |
| Aircraft | A339/H-SADE1E2E3GHIJ3J5M1P2RWXY/LB2D1 |
Departure
| Time | 2026-05-05 14:01 |
|---|---|
| Airport | Tan Son Nhat International Airport (VVTS) |
Arrival
| Time | N/A |
|---|---|
| Airport | Frankfurt Main Airport (EDDF) |
| Time | Latitude | Longitude | Altitude | Speed | Heading |
|---|---|---|---|---|---|
| 2026-05-05 13:47 | 10.81248 | 106.64903 | 40 ft | 0 kts | 159° |
| 2026-05-05 13:56 | 10.81248 | 106.64904 | 40 ft | 2 kts | 156° |
| 2026-05-05 13:56 | 10.81246 | 106.64942 | 40 ft | 0 kts | 74° |
| 2026-05-05 13:56 | 10.81266 | 106.64942 | 40 ft | 4 kts | 354° |
| 2026-05-05 13:57 | 10.81296 | 106.64899 | 38 ft | 11 kts | 283° |
| 2026-05-05 13:57 | 10.81270 | 106.64810 | 40 ft | 17 kts | 251° |
| 2026-05-05 13:57 | 10.81220 | 106.64663 | 39 ft | 26 kts | 249° |
| 2026-05-05 13:57 | 10.81144 | 106.64461 | 38 ft | 35 kts | 249° |
| 2026-05-05 13:58 | 10.81044 | 106.64215 | 37 ft | 38 kts | 246° |
| 2026-05-05 13:58 | 10.80949 | 106.63969 | 36 ft | 36 kts | 249° |
| 2026-05-05 13:58 | 10.80972 | 106.63762 | 35 ft | 29 kts | 308° |
| 2026-05-05 13:58 | 10.81143 | 106.63724 | 34 ft | 25 kts | 22° |
| 2026-05-05 13:59 | 10.81256 | 106.64012 | 35 ft | 20 kts | 72° |
| 2026-05-05 13:59 | 10.81304 | 106.64140 | 35 ft | 19 kts | 65° |
| 2026-05-05 14:00 | 10.81391 | 106.64359 | 38 ft | 15 kts | 74° |
| 2026-05-05 14:00 | 10.81400 | 106.64386 | 39 ft | 0 kts | 70° |
| 2026-05-05 14:00 | 10.81486 | 106.64610 | 40 ft | 61 kts | 68° |
| 2026-05-05 14:00 | 10.81708 | 106.65180 | 42 ft | 113 kts | 68° |
| 2026-05-05 14:01 | 10.82043 | 106.66066 | 45 ft | 154 kts | 69° |
| 2026-05-05 14:01 | 10.82463 | 106.67177 | 117 ft | 177 kts | 68° |
| 2026-05-05 14:01 | 10.82913 | 106.68319 | 579 ft | 172 kts | 66° |
| 2026-05-05 14:01 | 10.83408 | 106.69442 | 964 ft | 174 kts | 66° |
| 2026-05-05 14:02 | 10.83918 | 106.70582 | 1361 ft | 182 kts | 68° |
| 2026-05-05 14:02 | 10.84441 | 106.71817 | 1641 ft | 199 kts | 69° |
| 2026-05-05 14:02 | 10.84997 | 106.73178 | 1846 ft | 218 kts | 69° |
| 2026-05-05 14:02 | 10.85822 | 106.74560 | 1989 ft | 241 kts | 48° |
| 2026-05-05 14:03 | 10.87285 | 106.75503 | 2225 ft | 260 kts | 20° |
| 2026-05-05 14:03 | 10.89107 | 106.75666 | 2672 ft | 269 kts | 354° |
| 2026-05-05 14:03 | 10.90878 | 106.75088 | 3146 ft | 274 kts | 339° |
| 2026-05-05 14:03 | 10.92632 | 106.74308 | 3615 ft | 275 kts | 338° |
| 2026-05-05 14:04 | 10.94385 | 106.73528 | 4129 ft | 275 kts | 339° |
| 2026-05-05 14:04 | 10.96156 | 106.72783 | 4645 ft | 275 kts | 339° |
| 2026-05-05 14:04 | 10.97938 | 106.72071 | 5129 ft | 276 kts | 340° |
| 2026-05-05 14:04 | 10.99733 | 106.71355 | 5598 ft | 278 kts | 337° |
| 2026-05-05 14:05 | 11.01292 | 106.70180 | 6036 ft | 283 kts | 311° |
| 2026-05-05 14:05 | 11.02237 | 106.68428 | 6467 ft | 287 kts | 286° |
| 2026-05-05 14:05 | 11.02442 | 106.67095 | 6753 ft | 289 kts | 272° |
| 2026-05-05 14:05 | 11.02372 | 106.65035 | 7170 ft | 292 kts | 265° |
| 2026-05-05 14:06 | 11.02193 | 106.62964 | 7588 ft | 295 kts | 265° |
| 2026-05-05 14:06 | 11.02059 | 106.60876 | 8022 ft | 296 kts | 267° |
| 2026-05-05 14:06 | 11.01990 | 106.58774 | 8427 ft | 299 kts | 269° |
| 2026-05-05 14:06 | 11.01968 | 106.56647 | 8869 ft | 301 kts | 270° |
| 2026-05-05 14:07 | 11.01968 | 106.54513 | 9297 ft | 303 kts | 270° |
| 2026-05-05 14:07 | 11.01976 | 106.52355 | 9728 ft | 306 kts | 270° |
| 2026-05-05 14:07 | 11.01983 | 106.50180 | 10077 ft | 311 kts | 270° |
| 2026-05-05 14:07 | 11.01989 | 106.47926 | 10191 ft | 324 kts | 270° |
| 2026-05-05 14:08 | 11.01992 | 106.45616 | 10311 ft | 337 kts | 270° |
| 2026-05-05 14:08 | 11.01994 | 106.43188 | 10429 ft | 349 kts | 270° |
| 2026-05-05 14:08 | 11.01995 | 106.40689 | 10653 ft | 356 kts | 270° |
| 2026-05-05 14:08 | 11.01995 | 106.38165 | 11048 ft | 358 kts | 270° |
| 2026-05-05 14:09 | 11.01996 | 106.35624 | 11444 ft | 359 kts | 270° |
| 2026-05-05 14:09 | 11.01995 | 106.33076 | 11834 ft | 361 kts | 270° |
| 2026-05-05 14:09 | 11.01995 | 106.30516 | 12225 ft | 363 kts | 270° |
| 2026-05-05 14:09 | 11.01994 | 106.27942 | 12611 ft | 365 kts | 270° |
| 2026-05-05 14:10 | 11.01993 | 106.25349 | 13006 ft | 366 kts | 270° |
| 2026-05-05 14:10 | 11.01992 | 106.22748 | 13388 ft | 368 kts | 270° |
| 2026-05-05 14:10 | 11.02035 | 106.20132 | 13740 ft | 371 kts | 274° |
| 2026-05-05 14:10 | 11.02437 | 106.17539 | 14074 ft | 372 kts | 284° |
| 2026-05-05 14:11 | 11.03246 | 106.15030 | 14399 ft | 374 kts | 293° |
| 2026-05-05 14:11 | 11.04251 | 106.12585 | 14716 ft | 376 kts | 292° |
| 2026-05-05 14:11 | 11.05245 | 106.10111 | 15041 ft | 378 kts | 292° |
| 2026-05-05 14:11 | 11.06216 | 106.07657 | 15383 ft | 379 kts | 292° |
| 2026-05-05 14:12 | 11.07200 | 106.05156 | 15697 ft | 381 kts | 292° |
| 2026-05-05 14:12 | 11.08187 | 106.02644 | 16017 ft | 383 kts | 291° |
| 2026-05-05 14:12 | 11.09180 | 106.00114 | 16336 ft | 385 kts | 291° |
| 2026-05-05 14:12 | 11.10142 | 105.97562 | 16642 ft | 387 kts | 287° |
| 2026-05-05 14:13 | 11.10668 | 105.94871 | 16932 ft | 388 kts | 274° |
| 2026-05-05 14:13 | 11.10624 | 105.92128 | 17237 ft | 389 kts | 262° |
| 2026-05-05 14:13 | 11.10200 | 105.89402 | 17526 ft | 390 kts | 260° |
| 2026-05-05 14:13 | 11.09780 | 105.86669 | 17843 ft | 392 kts | 261° |
| 2026-05-05 14:14 | 11.09374 | 105.83921 | 18168 ft | 393 kts | 261° |
| 2026-05-05 14:14 | 11.08973 | 105.81158 | 18427 ft | 395 kts | 261° |
| 2026-05-05 14:14 | 11.08573 | 105.78385 | 18698 ft | 397 kts | 261° |
| 2026-05-05 14:14 | 11.08172 | 105.75599 | 18973 ft | 398 kts | 261° |
| 2026-05-05 14:15 | 11.07768 | 105.72801 | 19238 ft | 400 kts | 261° |
| 2026-05-05 14:15 | 11.07515 | 105.69972 | 19476 ft | 402 kts | 269° |
| 2026-05-05 14:15 | 11.07776 | 105.67138 | 19760 ft | 404 kts | 280° |
| 2026-05-05 14:15 | 11.08548 | 105.64380 | 20022 ft | 406 kts | 290° |
| 2026-05-05 14:16 | 11.09522 | 105.61714 | 20289 ft | 408 kts | 290° |
| 2026-05-05 14:16 | 11.10492 | 105.58991 | 20556 ft | 410 kts | 289° |
| 2026-05-05 14:16 | 11.11452 | 105.56252 | 20841 ft | 411 kts | 289° |
| 2026-05-05 14:16 | 11.12407 | 105.53509 | 21111 ft | 413 kts | 289° |
| 2026-05-05 14:17 | 11.13365 | 105.50753 | 21389 ft | 414 kts | 289° |
| 2026-05-05 14:17 | 11.14329 | 105.47980 | 21667 ft | 415 kts | 289° |
| 2026-05-05 14:17 | 11.15298 | 105.45194 | 21959 ft | 417 kts | 289° |
| 2026-05-05 14:17 | 11.16268 | 105.42406 | 22235 ft | 418 kts | 289° |
| 2026-05-05 14:18 | 11.17239 | 105.39615 | 22504 ft | 420 kts | 289° |
| 2026-05-05 14:18 | 11.18218 | 105.36801 | 22783 ft | 422 kts | 289° |
| 2026-05-05 14:18 | 11.19200 | 105.33976 | 23059 ft | 424 kts | 289° |
| 2026-05-05 14:18 | 11.20186 | 105.31141 | 23321 ft | 426 kts | 289° |
| 2026-05-05 14:19 | 11.21175 | 105.28295 | 23591 ft | 427 kts | 289° |
| 2026-05-05 14:19 | 11.22168 | 105.25435 | 23823 ft | 428 kts | 289° |
| 2026-05-05 14:19 | 11.23163 | 105.22567 | 24060 ft | 430 kts | 289° |
| 2026-05-05 14:19 | 11.24161 | 105.19693 | 24287 ft | 431 kts | 289° |
| 2026-05-05 14:20 | 11.25163 | 105.16805 | 24513 ft | 433 kts | 289° |
| 2026-05-05 14:20 | 11.26168 | 105.13909 | 24749 ft | 434 kts | 289° |
| 2026-05-05 14:20 | 11.27163 | 105.11038 | 24969 ft | 436 kts | 289° |
| 2026-05-05 14:20 | 11.28176 | 105.08112 | 25185 ft | 438 kts | 289° |
| 2026-05-05 14:21 | 11.29192 | 105.05180 | 25407 ft | 439 kts | 289° |
| 2026-05-05 14:21 | 11.30212 | 105.02235 | 25632 ft | 441 kts | 289° |
| 2026-05-05 14:21 | 11.31235 | 104.99280 | 25866 ft | 443 kts | 289° |
| 2026-05-05 14:21 | 11.32261 | 104.96316 | 26060 ft | 444 kts | 289° |
| 2026-05-05 14:22 | 11.33291 | 104.93338 | 26268 ft | 446 kts | 289° |
| 2026-05-05 14:22 | 11.34455 | 104.90404 | 26488 ft | 448 kts | 295° |
| 2026-05-05 14:22 | 11.35971 | 104.87620 | 26707 ft | 450 kts | 302° |
| 2026-05-05 14:22 | 11.37662 | 104.84921 | 26922 ft | 451 kts | 302° |
| 2026-05-05 14:23 | 11.39320 | 104.82244 | 27137 ft | 453 kts | 301° |
| 2026-05-05 14:23 | 11.41013 | 104.79489 | 27360 ft | 454 kts | 301° |
| 2026-05-05 14:23 | 11.42668 | 104.76790 | 27562 ft | 455 kts | 301° |
| 2026-05-05 14:23 | 11.44351 | 104.74045 | 27777 ft | 457 kts | 301° |
| 2026-05-05 14:24 | 11.46037 | 104.71296 | 27984 ft | 458 kts | 301° |
| 2026-05-05 14:24 | 11.47730 | 104.68535 | 28192 ft | 460 kts | 301° |
| 2026-05-05 14:24 | 11.49430 | 104.65761 | 28399 ft | 461 kts | 302° |
| 2026-05-05 14:24 | 11.51130 | 104.62987 | 28613 ft | 462 kts | 302° |
| 2026-05-05 14:25 | 11.52837 | 104.60203 | 28810 ft | 464 kts | 302° |
| 2026-05-05 14:25 | 11.54548 | 104.57409 | 29009 ft | 465 kts | 302° |
| 2026-05-05 14:25 | 11.56267 | 104.54603 | 29209 ft | 467 kts | 302° |
| 2026-05-05 14:25 | 11.57991 | 104.51787 | 29391 ft | 469 kts | 302° |
| 2026-05-05 14:26 | 11.59720 | 104.48963 | 29604 ft | 470 kts | 302° |
| 2026-05-05 14:26 | 11.61451 | 104.46134 | 29801 ft | 471 kts | 302° |
| 2026-05-05 14:26 | 11.63191 | 104.43288 | 30021 ft | 472 kts | 302° |
| 2026-05-05 14:26 | 11.64932 | 104.40441 | 30187 ft | 474 kts | 302° |
| 2026-05-05 14:27 | 11.66678 | 104.37585 | 30372 ft | 475 kts | 302° |
| 2026-05-05 14:27 | 11.68429 | 104.34720 | 30566 ft | 476 kts | 302° |
| 2026-05-05 14:27 | 11.70158 | 104.31890 | 30763 ft | 477 kts | 302° |
| 2026-05-05 14:27 | 11.71919 | 104.29008 | 30962 ft | 478 kts | 302° |
| 2026-05-05 14:28 | 11.73684 | 104.26117 | 31149 ft | 480 kts | 302° |
| 2026-05-05 14:28 | 11.75450 | 104.23225 | 31348 ft | 481 kts | 302° |
| 2026-05-05 14:28 | 11.77225 | 104.20315 | 31539 ft | 482 kts | 302° |
| 2026-05-05 14:28 | 11.79004 | 104.17401 | 31734 ft | 483 kts | 302° |
| 2026-05-05 14:29 | 11.80783 | 104.14484 | 31906 ft | 485 kts | 301° |
| 2026-05-05 14:29 | 11.82575 | 104.11545 | 31919 ft | 490 kts | 301° |
| 2026-05-05 14:29 | 11.86199 | 104.05598 | 31916 ft | 497 kts | 301° |
| 2026-05-05 14:30 | 11.89829 | 103.99638 | 31921 ft | 497 kts | 301° |
| 2026-05-05 14:30 | 11.93475 | 103.93646 | 31922 ft | 496 kts | 301° |
| 2026-05-05 14:31 | 11.97114 | 103.87661 | 31927 ft | 496 kts | 301° |
| 2026-05-05 14:31 | 12.00752 | 103.81675 | 31932 ft | 494 kts | 301° |
| 2026-05-05 14:32 | 12.04376 | 103.75707 | 31933 ft | 494 kts | 301° |
| 2026-05-05 14:32 | 12.07994 | 103.69745 | 31931 ft | 493 kts | 301° |
| 2026-05-05 14:33 | 12.11583 | 103.63825 | 31927 ft | 493 kts | 301° |
| 2026-05-05 14:33 | 12.15192 | 103.57871 | 31932 ft | 493 kts | 301° |
| 2026-05-05 14:34 | 12.18806 | 103.51905 | 31934 ft | 493 kts | 301° |